Aérodrome :
LOGIN :

S'inscrire | Disclaimer

   EN    FR    IT 

 










Légende :    VFR   VFR Marginal   IFR   IFR Intensif   IFR Très Intensif
Visi : 
Plafond : 
>= 8 km
>= 3000ft
5 à 8 km
1000 à 3000 ft
1500m à 5 km
500 à 1000 ft
800 à 1500m
200 à 500 ft
< 800m
< 200 ft
Symboles :   Orages  Brouillard  Fortes neiges  Fortes précipitations  Vent > 20 kt
SIGMETs :   Divers  Orages  Givrage  Turbulence  Onde Orograph.  Cendres Volcan.







- Altitude de l'aérodrome : 348 ft
- Code IATA : LDV
- Voir les cartes d'approche


LFRJ - Landivisiau

DERNIER METAR :
  • 172300Z AUTO 07005KT 5000 0500 R26/1200D R08/0650D BCFG FEW017/// 11/11 Q1021

METARs EXPIRÉS :
  • 172230Z AUTO 05004KT 5000 0500 R26/P2000 R08/0600D BCFG FEW016 SCT046 11/11 Q1021
  • 172200Z AUTO 04004KT 6000 FEW017 SCT037 10/10 Q1021
  • 172130Z AUTO 05004KT 6000 FEW030 SCT038 BKN045 11/11 Q1021 TEMPO 3000 BR BKN007
  • 172100Z AUTO 03004KT 5000 BR FEW013 SCT030 BKN037 11/10 Q1021 TEMPO BKN007
  • 172030Z AUTO 05004KT 5000 0900 R26/P2000 R08/P2000 BCFG FEW002 SCT012 11/11 Q1021 BECMG BKN004 OVC010

TAF TAF LFRJ
Valide du 17 à 21h jusqu'au 18 à 06h UTC


172000Z 1721/1806 04005KT 6000 SCT003 BKN006
TEMPO 1721/1724 3000 BR BKN002
PROB40
TEMPO 1721/1724 BKN007
BECMG 1804/1806 3000 BR BKN003
Pas de NOTAMs connus pour ce terrain.



MET'MAP, la Météo Aéronautique d'un coup d'oeil ! - Copyright ORBIFLY Décembre 2007 - Disclaimer

ORBIFLY MET'MAP TEAM :

Programmation & Développement : Alexandra Zaïnal
Conception & Développement : Baudouin d'Aumeries
Co-Programmation & Développement : Marc-Olivier Méhu
Soutien technique & logistique : Manuel Goepfert

Contact : metmap@orbifly.com




SOURCES & CREDITS :

   NOAA